sensor_id;sensor_type;location;lat;lon;timestamp;pressure;altitude;pressure_sealevel;temperature;humidity
29045;BME280;16133;49.486;12.176;2022-11-09T00:01:19;97011.25;;;4.25;100.00
29045;BME280;16133;49.486;12.176;2022-11-09T00:03:45;97020.59;;;4.27;100.00
29045;BME280;16133;49.486;12.176;2022-11-09T00:06:11;97022.53;;;4.25;100.00
29045;BME280;16133;49.486;12.176;2022-11-09T00:08:39;97018.03;;;4.18;100.00
29045;BME280;16133;49.486;12.176;2022-11-09T00:11:07;97018.94;;;4.09;100.00
29045;BME280;16133;49.486;12.176;2022-11-09T00:13:38;97027.69;;;4.00;100.00
29045;BME280;16133;49.486;12.176;2022-11-09T00:16:09;97047.50;;;3.94;100.00
29045;BME280;16133;49.486;12.176;2022-11-09T00:18:35;97060.91;;;3.91;100.00
29045;BME280;16133;49.486;12.176;2022-11-09T00:21:06;97067.16;;;3.90;100.00
29045;BME280;16133;49.486;12.176;2022-11-09T00:23:31;97054.03;;;3.90;100.00
29045;BME280;16133;49.486;12.176;2022-11-09T00:26:01;97052.38;;;3.89;100.00
29045;BME280;16133;49.486;12.176;2022-11-09T00:28:27;97062.19;;;3.87;100.00
29045;BME280;16133;49.486;12.176;2022-11-09T00:31:04;97060.00;;;3.82;100.00
29045;BME280;16133;49.486;12.176;2022-11-09T00:33:30;97062.22;;;3.77;100.00
29045;BME280;16133;49.486;12.176;2022-11-09T00:35:56;97059.22;;;3.72;100.00
29045;BME280;16133;49.486;12.176;2022-11-09T00:38:21;97067.69;;;3.66;100.00
29045;BME280;16133;49.486;12.176;2022-11-09T00:40:47;97077.63;;;3.63;100.00
29045;BME280;16133;49.486;12.176;2022-11-09T00:43:12;97077.94;;;3.60;100.00
29045;BME280;16133;49.486;12.176;2022-11-09T00:45:38;97068.53;;;3.57;100.00
29045;BME280;16133;49.486;12.176;2022-11-09T00:48:05;97071.03;;;3.59;100.00
29045;BME280;16133;49.486;12.176;2022-11-09T00:50:31;97076.94;;;3.61;100.00
29045;BME280;16133;49.486;12.176;2022-11-09T00:52:56;97079.72;;;3.59;100.00
29045;BME280;16133;49.486;12.176;2022-11-09T00:55:22;97069.06;;;3.61;100.00
29045;BME280;16133;49.486;12.176;2022-11-09T00:57:49;97064.50;;;3.63;100.00
29045;BME280;16133;49.486;12.176;2022-11-09T01:00:19;97065.19;;;3.65;100.00
29045;BME280;16133;49.486;12.176;2022-11-09T01:02:46;97061.59;;;3.66;100.00
29045;BME280;16133;49.486;12.176;2022-11-09T01:05:11;97060.63;;;3.67;100.00
29045;BME280;16133;49.486;12.176;2022-11-09T01:07:37;97059.66;;;3.68;100.00
29045;BME280;16133;49.486;12.176;2022-11-09T01:10:04;97062.97;;;3.70;100.00
29045;BME280;16133;49.486;12.176;2022-11-09T01:12:30;97047.34;;;3.68;100.00
29045;BME280;16133;49.486;12.176;2022-11-09T01:14:56;97043.22;;;3.66;100.00
29045;BME280;16133;49.486;12.176;2022-11-09T01:17:21;97043.53;;;3.63;100.00
29045;BME280;16133;49.486;12.176;2022-11-09T01:19:47;97036.63;;;3.62;100.00
29045;BME280;16133;49.486;12.176;2022-11-09T01:22:13;97028.75;;;3.62;100.00
29045;BME280;16133;49.486;12.176;2022-11-09T01:24:38;97017.06;;;3.56;100.00
29045;BME280;16133;49.486;12.176;2022-11-09T01:27:03;97011.66;;;3.58;100.00
29045;BME280;16133;49.486;12.176;2022-11-09T01:29:29;97010.16;;;3.55;100.00
29045;BME280;16133;49.486;12.176;2022-11-09T01:31:57;97017.19;;;3.55;100.00
29045;BME280;16133;49.486;12.176;2022-11-09T01:34:22;97021.59;;;3.54;100.00
29045;BME280;16133;49.486;12.176;2022-11-09T01:36:51;97022.31;;;3.56;100.00
29045;BME280;16133;49.486;12.176;2022-11-09T01:39:17;97022.69;;;3.61;100.00
29045;BME280;16133;49.486;12.176;2022-11-09T01:41:43;97013.53;;;3.65;100.00
29045;BME280;16133;49.486;12.176;2022-11-09T01:44:13;97010.78;;;3.67;100.00
29045;BME280;16133;49.486;12.176;2022-11-09T01:46:49;97013.25;;;3.68;100.00
29045;BME280;16133;49.486;12.176;2022-11-09T01:49:50;97015.88;;;3.68;100.00
29045;BME280;16133;49.486;12.176;2022-11-09T01:52:28;97001.94;;;3.68;100.00
29045;BME280;16133;49.486;12.176;2022-11-09T01:55:02;96993.91;;;3.69;100.00
29045;BME280;16133;49.486;12.176;2022-11-09T01:57:33;96999.84;;;3.71;100.00
29045;BME280;16133;49.486;12.176;2022-11-09T02:00:04;96991.69;;;3.74;100.00
29045;BME280;16133;49.486;12.176;2022-11-09T02:02:31;96988.63;;;3.79;100.00
29045;BME280;16133;49.486;12.176;2022-11-09T02:05:07;96984.44;;;3.86;100.00
29045;BME280;16133;49.486;12.176;2022-11-09T02:07:36;96987.28;;;3.93;100.00
29045;BME280;16133;49.486;12.176;2022-11-09T02:10:09;96980.31;;;4.01;100.00
29045;BME280;16133;49.486;12.176;2022-11-09T02:12:37;96975.16;;;4.09;100.00
29045;BME280;16133;49.486;12.176;2022-11-09T02:15:05;96971.59;;;4.18;100.00
29045;BME280;16133;49.486;12.176;2022-11-09T02:17:33;96968.22;;;4.26;100.00
29045;BME280;16133;49.486;12.176;2022-11-09T02:19:59;96974.00;;;4.29;100.00
29045;BME280;16133;49.486;12.176;2022-11-09T02:22:25;96979.94;;;4.31;100.00
29045;BME280;16133;49.486;12.176;2022-11-09T02:24:51;96979.94;;;4.31;100.00
29045;BME280;16133;49.486;12.176;2022-11-09T02:27:17;96969.75;;;4.28;100.00
29045;BME280;16133;49.486;12.176;2022-11-09T02:29:44;96955.63;;;4.29;100.00
29045;BME280;16133;49.486;12.176;2022-11-09T02:32:27;96949.56;;;4.29;100.00
29045;BME280;16133;49.486;12.176;2022-11-09T02:34:53;96946.94;;;4.29;100.00
29045;BME280;16133;49.486;12.176;2022-11-09T02:39:54;96955.03;;;4.36;100.00
29045;BME280;16133;49.486;12.176;2022-11-09T02:42:21;96949.78;;;4.36;100.00
29045;BME280;16133;49.486;12.176;2022-11-09T02:44:52;96957.78;;;4.34;100.00
29045;BME280;16133;49.486;12.176;2022-11-09T02:47:19;96915.72;;;4.08;100.00
29045;BME280;16133;49.486;12.176;2022-11-09T02:49:45;96959.91;;;4.30;100.00
29045;BME280;16133;49.486;12.176;2022-11-09T02:52:10;96955.09;;;4.26;100.00
29045;BME280;16133;49.486;12.176;2022-11-09T02:54:35;96960.66;;;4.23;100.00
29045;BME280;16133;49.486;12.176;2022-11-09T02:57:01;96966.22;;;4.20;100.00
29045;BME280;16133;49.486;12.176;2022-11-09T02:59:26;96973.25;;;4.19;100.00
29045;BME280;16133;49.486;12.176;2022-11-09T03:01:52;96980.16;;;4.20;100.00
29045;BME280;16133;49.486;12.176;2022-11-09T03:04:17;96978.06;;;4.24;100.00
29045;BME280;16133;49.486;12.176;2022-11-09T03:06:42;96978.72;;;4.26;100.00
29045;BME280;16133;49.486;12.176;2022-11-09T03:09:10;96981.53;;;4.24;100.00
29045;BME280;16133;49.486;12.176;2022-11-09T03:11:36;96986.09;;;4.22;100.00
29045;BME280;16133;49.486;12.176;2022-11-09T03:14:02;96991.63;;;4.19;100.00
29045;BME280;16133;49.486;12.176;2022-11-09T03:16:28;96990.66;;;4.20;100.00
29045;BME280;16133;49.486;12.176;2022-11-09T03:18:54;96989.97;;;4.18;100.00
29045;BME280;16133;49.486;12.176;2022-11-09T03:21:20;97000.13;;;4.13;100.00
29045;BME280;16133;49.486;12.176;2022-11-09T03:23:49;97004.34;;;4.06;100.00
29045;BME280;16133;49.486;12.176;2022-11-09T03:26:15;97017.19;;;4.00;100.00
29045;BME280;16133;49.486;12.176;2022-11-09T03:28:40;97024.72;;;3.95;100.00
29045;BME280;16133;49.486;12.176;2022-11-09T03:31:07;97033.16;;;3.89;100.00
29045;BME280;16133;49.486;12.176;2022-11-09T03:33:33;97037.34;;;3.81;100.00
29045;BME280;16133;49.486;12.176;2022-11-09T03:35:58;97029.50;;;3.72;100.00
29045;BME280;16133;49.486;12.176;2022-11-09T03:38:23;97036.72;;;3.70;100.00
29045;BME280;16133;49.486;12.176;2022-11-09T03:40:49;97041.56;;;3.65;100.00
29045;BME280;16133;49.486;12.176;2022-11-09T03:43:14;97039.53;;;3.59;100.00
29045;BME280;16133;49.486;12.176;2022-11-09T03:45:40;97040.81;;;3.55;100.00
29045;BME280;16133;49.486;12.176;2022-11-09T03:48:05;97037.78;;;3.50;100.00
29045;BME280;16133;49.486;12.176;2022-11-09T03:50:32;97048.69;;;3.45;100.00
29045;BME280;16133;49.486;12.176;2022-11-09T03:52:59;97056.31;;;3.38;100.00
29045;BME280;16133;49.486;12.176;2022-11-09T03:55:25;97060.19;;;3.34;100.00
29045;BME280;16133;49.486;12.176;2022-11-09T03:57:51;97066.16;;;3.27;100.00
29045;BME280;16133;49.486;12.176;2022-11-09T04:00:18;97064.13;;;3.21;100.00
29045;BME280;16133;49.486;12.176;2022-11-09T04:02:44;97067.28;;;3.15;100.00
29045;BME280;16133;49.486;12.176;2022-11-09T04:05:10;97066.91;;;3.10;100.00
29045;BME280;16133;49.486;12.176;2022-11-09T04:07:37;97071.31;;;3.09;100.00
29045;BME280;16133;49.486;12.176;2022-11-09T04:10:03;97070.38;;;3.10;100.00
29045;BME280;16133;49.486;12.176;2022-11-09T04:12:29;97054.63;;;3.10;100.00
29045;BME280;16133;49.486;12.176;2022-11-09T04:14:54;97053.66;;;3.11;100.00
29045;BME280;16133;49.486;12.176;2022-11-09T04:17:20;97035.28;;;3.11;100.00
29045;BME280;16133;49.486;12.176;2022-11-09T04:19:45;97034.47;;;3.11;100.00
29045;BME280;16133;49.486;12.176;2022-11-09T04:22:10;97030.88;;;3.12;100.00
29045;BME280;16133;49.486;12.176;2022-11-09T04:24:36;97031.72;;;3.12;100.00
29045;BME280;16133;49.486;12.176;2022-11-09T04:27:02;97027.97;;;3.15;100.00
29045;BME280;16133;49.486;12.176;2022-11-09T04:29:27;97020.94;;;3.15;100.00
29045;BME280;16133;49.486;12.176;2022-11-09T04:31:53;97021.53;;;3.09;100.00
29045;BME280;16133;49.486;12.176;2022-11-09T04:34:18;97020.28;;;3.04;100.00
29045;BME280;16133;49.486;12.176;2022-11-09T04:36:43;97021.41;;;3.01;100.00
29045;BME280;16133;49.486;12.176;2022-11-09T04:39:09;97022.38;;;3.00;100.00
29045;BME280;16133;49.486;12.176;2022-11-09T04:41:35;97015.03;;;3.04;100.00
29045;BME280;16133;49.486;12.176;2022-11-09T04:44:00;97016.56;;;3.06;100.00
29045;BME280;16133;49.486;12.176;2022-11-09T04:46:26;97004.97;;;3.09;100.00
29045;BME280;16133;49.486;12.176;2022-11-09T04:48:52;97014.31;;;3.11;100.00
29045;BME280;16133;49.486;12.176;2022-11-09T04:51:17;97000.94;;;3.14;100.00
29045;BME280;16133;49.486;12.176;2022-11-09T04:53:43;97008.66;;;3.16;100.00
29045;BME280;16133;49.486;12.176;2022-11-09T04:56:09;97004.25;;;3.16;100.00
29045;BME280;16133;49.486;12.176;2022-11-09T04:58:35;96992.28;;;3.14;100.00
29045;BME280;16133;49.486;12.176;2022-11-09T05:01:11;97006.75;;;3.08;100.00
29045;BME280;16133;49.486;12.176;2022-11-09T05:03:37;97006.50;;;3.02;100.00
29045;BME280;16133;49.486;12.176;2022-11-09T05:06:04;97014.25;;;2.94;100.00
29045;BME280;16133;49.486;12.176;2022-11-09T05:08:49;97030.69;;;2.86;100.00
29045;BME280;16133;49.486;12.176;2022-11-09T05:11:15;97027.94;;;2.78;100.00
29045;BME280;16133;49.486;12.176;2022-11-09T05:13:40;97033.88;;;2.70;100.00
29045;BME280;16133;49.486;12.176;2022-11-09T05:16:06;97045.72;;;2.65;100.00
29045;BME280;16133;49.486;12.176;2022-11-09T05:18:31;97047.97;;;2.60;100.00
29045;BME280;16133;49.486;12.176;2022-11-09T05:21:01;97049.19;;;2.56;100.00
29045;BME280;16133;49.486;12.176;2022-11-09T05:23:27;97063.53;;;2.52;100.00
29045;BME280;16133;49.486;12.176;2022-11-09T05:26:11;97043.97;;;2.36;100.00
29045;BME280;16133;49.486;12.176;2022-11-09T05:28:36;97062.44;;;2.45;100.00
29045;BME280;16133;49.486;12.176;2022-11-09T05:31:02;97061.06;;;2.40;100.00
29045;BME280;16133;49.486;12.176;2022-11-09T05:33:27;97071.81;;;2.37;100.00
29045;BME280;16133;49.486;12.176;2022-11-09T05:35:53;97070.16;;;2.36;100.00
29045;BME280;16133;49.486;12.176;2022-11-09T05:38:19;97072.88;;;2.35;100.00
29045;BME280;16133;49.486;12.176;2022-11-09T05:40:47;97073.59;;;2.37;100.00
29045;BME280;16133;49.486;12.176;2022-11-09T05:43:12;97076.34;;;2.35;100.00
29045;BME280;16133;49.486;12.176;2022-11-09T05:45:38;97072.78;;;2.36;100.00
29045;BME280;16133;49.486;12.176;2022-11-09T05:48:04;97062.13;;;2.38;100.00
29045;BME280;16133;49.486;12.176;2022-11-09T05:50:29;97058.84;;;2.46;100.00
29045;BME280;16133;49.486;12.176;2022-11-09T05:52:57;97049.19;;;2.56;100.00
29045;BME280;16133;49.486;12.176;2022-11-09T05:55:23;97046.72;;;2.64;100.00
29045;BME280;16133;49.486;12.176;2022-11-09T05:57:48;97030.44;;;2.70;100.00
29045;BME280;16133;49.486;12.176;2022-11-09T06:00:14;97020.06;;;2.78;100.00
29045;BME280;16133;49.486;12.176;2022-11-09T06:02:39;97012.63;;;2.83;100.00
29045;BME280;16133;49.486;12.176;2022-11-09T06:05:05;97018.78;;;2.92;100.00
29045;BME280;16133;49.486;12.176;2022-11-09T06:07:31;97018.78;;;3.01;100.00
29045;BME280;16133;49.486;12.176;2022-11-09T06:09:57;97011.16;;;3.08;100.00
29045;BME280;16133;49.486;12.176;2022-11-09T06:12:22;97016.66;;;3.14;100.00
29045;BME280;16133;49.486;12.176;2022-11-09T06:14:48;97024.09;;;3.19;100.00
29045;BME280;16133;49.486;12.176;2022-11-09T06:17:13;97016.50;;;3.25;100.00
29045;BME280;16133;49.486;12.176;2022-11-09T06:19:39;97007.75;;;3.34;100.00
29045;BME280;16133;49.486;12.176;2022-11-09T06:22:04;97008.56;;;3.45;100.00
29045;BME280;16133;49.486;12.176;2022-11-09T06:24:29;97006.41;;;3.58;100.00
29045;BME280;16133;49.486;12.176;2022-11-09T06:26:55;97003.28;;;3.72;100.00
29045;BME280;16133;49.486;12.176;2022-11-09T06:29:21;97016.75;;;3.87;100.00
29045;BME280;16133;49.486;12.176;2022-11-09T06:31:46;97014.75;;;3.98;100.00
29045;BME280;16133;49.486;12.176;2022-11-09T06:34:13;97022.41;;;4.09;100.00
29045;BME280;16133;49.486;12.176;2022-11-09T06:36:39;97018.59;;;4.21;100.00
29045;BME280;16133;49.486;12.176;2022-11-09T06:39:04;96997.28;;;4.24;100.00
29045;BME280;16133;49.486;12.176;2022-11-09T06:41:32;97012.19;;;4.42;100.00
29045;BME280;16133;49.486;12.176;2022-11-09T06:43:58;97008.81;;;4.49;100.00
29045;BME280;16133;49.486;12.176;2022-11-09T06:46:23;97008.53;;;4.52;100.00
29045;BME280;16133;49.486;12.176;2022-11-09T06:48:49;97017.91;;;4.55;100.00
29045;BME280;16133;49.486;12.176;2022-11-09T06:51:14;97012.84;;;4.61;100.00
29045;BME280;16133;49.486;12.176;2022-11-09T06:53:39;97018.31;;;4.68;100.00
29045;BME280;16133;49.486;12.176;2022-11-09T06:56:06;97026.25;;;4.76;100.00
29045;BME280;16133;49.486;12.176;2022-11-09T06:58:32;97028.63;;;4.87;100.00
29045;BME280;16133;49.486;12.176;2022-11-09T07:00:57;97043.50;;;4.96;100.00
29045;BME280;16133;49.486;12.176;2022-11-09T07:03:23;97046.84;;;5.06;100.00
29045;BME280;16133;49.486;12.176;2022-11-09T07:05:51;97047.72;;;5.15;100.00
29045;BME280;16133;49.486;12.176;2022-11-09T07:08:17;97043.00;;;5.18;100.00
29045;BME280;16133;49.486;12.176;2022-11-09T07:10:44;97034.78;;;5.21;100.00
29045;BME280;16133;49.486;12.176;2022-11-09T07:13:10;97048.47;;;5.25;100.00
29045;BME280;16133;49.486;12.176;2022-11-09T07:15:36;97050.63;;;5.29;100.00
29045;BME280;16133;49.486;12.176;2022-11-09T07:18:04;97050.00;;;5.36;100.00
29045;BME280;16133;49.486;12.176;2022-11-09T07:20:31;97058.59;;;5.46;100.00
29045;BME280;16133;49.486;12.176;2022-11-09T07:22:56;97058.00;;;5.60;100.00
29045;BME280;16133;49.486;12.176;2022-11-09T07:25:22;97056.66;;;5.82;100.00
29045;BME280;16133;49.486;12.176;2022-11-09T07:27:49;97066.47;;;6.05;100.00
29045;BME280;16133;49.486;12.176;2022-11-09T07:30:15;97079.06;;;6.28;100.00
29045;BME280;16133;49.486;12.176;2022-11-09T07:32:41;97077.75;;;6.48;100.00
29045;BME280;16133;49.486;12.176;2022-11-09T07:35:07;97068.25;;;6.63;100.00
29045;BME280;16133;49.486;12.176;2022-11-09T07:37:34;97063.31;;;6.76;100.00
29045;BME280;16133;49.486;12.176;2022-11-09T07:39:59;97056.72;;;6.88;100.00
29045;BME280;16133;49.486;12.176;2022-11-09T07:42:24;97041.88;;;7.03;100.00
29045;BME280;16133;49.486;12.176;2022-11-09T07:44:50;97039.84;;;7.30;100.00
29045;BME280;16133;49.486;12.176;2022-11-09T07:47:17;97027.88;;;7.66;100.00
29045;BME280;16133;49.486;12.176;2022-11-09T07:49:42;97021.78;;;8.04;100.00
29045;BME280;16133;49.486;12.176;2022-11-09T07:52:08;97024.25;;;8.37;100.00
29045;BME280;16133;49.486;12.176;2022-11-09T07:54:33;97017.19;;;8.52;100.00
29045;BME280;16133;49.486;12.176;2022-11-09T07:56:59;97012.50;;;8.62;100.00
29045;BME280;16133;49.486;12.176;2022-11-09T07:59:24;97009.88;;;8.62;100.00
29045;BME280;16133;49.486;12.176;2022-11-09T08:01:49;97020.72;;;8.67;100.00
29045;BME280;16133;49.486;12.176;2022-11-09T08:04:15;97010.91;;;8.76;100.00
29045;BME280;16133;49.486;12.176;2022-11-09T08:06:40;97015.78;;;8.87;100.00
29045;BME280;16133;49.486;12.176;2022-11-09T08:09:06;97023.41;;;9.04;100.00
29045;BME280;16133;49.486;12.176;2022-11-09T08:11:31;97013.22;;;9.31;100.00
29045;BME280;16133;49.486;12.176;2022-11-09T08:13:57;97017.31;;;9.63;100.00
29045;BME280;16133;49.486;12.176;2022-11-09T08:16:22;97011.56;;;9.88;100.00
29045;BME280;16133;49.486;12.176;2022-11-09T08:18:49;97019.88;;;10.15;100.00
29045;BME280;16133;49.486;12.176;2022-11-09T08:21:14;97025.84;;;10.38;100.00
29045;BME280;16133;49.486;12.176;2022-11-09T08:23:40;97019.84;;;10.50;100.00
29045;BME280;16133;49.486;12.176;2022-11-09T08:26:05;97038.84;;;10.54;100.00
29045;BME280;16133;49.486;12.176;2022-11-09T08:28:32;97064.00;;;10.58;100.00
29045;BME280;16133;49.486;12.176;2022-11-09T08:31:02;97107.72;;;10.62;100.00
29045;BME280;16133;49.486;12.176;2022-11-09T08:33:29;97176.97;;;10.67;100.00
29045;BME280;16133;49.486;12.176;2022-11-09T08:35:54;97241.38;;;10.76;100.00
29045;BME280;16133;49.486;12.176;2022-11-09T08:38:20;97290.69;;;10.85;100.00
29045;BME280;16133;49.486;12.176;2022-11-09T08:40:46;97285.03;;;10.73;100.00
29045;BME280;16133;49.486;12.176;2022-11-09T08:43:11;97305.63;;;10.71;100.00
29045;BME280;16133;49.486;12.176;2022-11-09T08:45:38;97308.56;;;10.62;100.00
29045;BME280;16133;49.486;12.176;2022-11-09T08:48:06;97319.13;;;10.47;100.00
29045;BME280;16133;49.486;12.176;2022-11-09T08:50:33;97329.19;;;10.37;100.00
29045;BME280;16133;49.486;12.176;2022-11-09T08:53:00;97332.56;;;10.31;100.00
29045;BME280;16133;49.486;12.176;2022-11-09T08:55:26;97343.50;;;10.28;100.00
29045;BME280;16133;49.486;12.176;2022-11-09T08:57:56;97344.06;;;10.23;100.00
29045;BME280;16133;49.486;12.176;2022-11-09T09:00:22;97338.09;;;10.21;100.00
29045;BME280;16133;49.486;12.176;2022-11-09T09:02:48;97342.78;;;10.19;100.00
29045;BME280;16133;49.486;12.176;2022-11-09T09:05:14;97341.59;;;10.22;100.00
29045;BME280;16133;49.486;12.176;2022-11-09T09:07:40;97342.97;;;10.32;100.00
29045;BME280;16133;49.486;12.176;2022-11-09T09:10:06;97350.03;;;10.40;100.00
29045;BME280;16133;49.486;12.176;2022-11-09T09:12:31;97343.06;;;10.39;100.00
29045;BME280;16133;49.486;12.176;2022-11-09T09:14:57;97346.91;;;10.22;100.00
29045;BME280;16133;49.486;12.176;2022-11-09T09:17:22;97348.75;;;10.13;100.00
29045;BME280;16133;49.486;12.176;2022-11-09T09:19:47;97347.66;;;10.07;100.00
29045;BME280;16133;49.486;12.176;2022-11-09T09:22:13;97358.53;;;10.13;100.00
29045;BME280;16133;49.486;12.176;2022-11-09T09:24:38;97360.31;;;10.20;100.00
29045;BME280;16133;49.486;12.176;2022-11-09T09:27:04;97363.72;;;10.29;100.00
29045;BME280;16133;49.486;12.176;2022-11-09T09:29:29;97360.66;;;10.40;100.00
29045;BME280;16133;49.486;12.176;2022-11-09T09:31:55;97363.53;;;10.53;100.00
29045;BME280;16133;49.486;12.176;2022-11-09T09:34:20;97350.63;;;10.50;100.00
29045;BME280;16133;49.486;12.176;2022-11-09T09:36:45;97365.28;;;10.75;100.00
29045;BME280;16133;49.486;12.176;2022-11-09T09:39:11;97358.91;;;10.84;100.00
29045;BME280;16133;49.486;12.176;2022-11-09T09:41:57;97356.41;;;10.97;100.00
29045;BME280;16133;49.486;12.176;2022-11-09T09:49:46;97350.97;;;11.35;100.00
29045;BME280;16133;49.486;12.176;2022-11-09T09:52:35;97340.13;;;11.51;100.00
29045;BME280;16133;49.486;12.176;2022-11-09T09:58:03;97344.84;;;11.70;100.00
29045;BME280;16133;49.486;12.176;2022-11-09T10:00:32;97344.16;;;11.76;100.00
29045;BME280;16133;49.486;12.176;2022-11-09T10:02:58;97359.34;;;11.82;100.00
29045;BME280;16133;49.486;12.176;2022-11-09T10:23:47;97357.00;;;12.15;100.00
29045;BME280;16133;49.486;12.176;2022-11-09T10:26:27;97347.94;;;12.31;100.00
29045;BME280;16133;49.486;12.176;2022-11-09T10:29:00;97337.78;;;12.41;95.49
29045;BME280;16133;49.486;12.176;2022-11-09T10:31:31;97330.28;;;12.51;95.98
29045;BME280;16133;49.486;12.176;2022-11-09T10:34:16;97327.66;;;12.58;96.01
29045;BME280;16133;49.486;12.176;2022-11-09T10:36:46;97322.78;;;12.61;96.08
29045;BME280;16133;49.486;12.176;2022-11-09T10:39:13;97328.56;;;12.65;95.74
29045;BME280;16133;49.486;12.176;2022-11-09T10:41:42;97317.66;;;12.60;94.66
29045;BME280;16133;49.486;12.176;2022-11-09T10:44:16;97317.84;;;12.58;95.39
29045;BME280;16133;49.486;12.176;2022-11-09T10:47:08;97313.88;;;12.48;94.05
29045;BME280;16133;49.486;12.176;2022-11-09T10:49:34;97311.56;;;12.38;94.68
29045;BME280;16133;49.486;12.176;2022-11-09T10:52:00;97305.00;;;12.34;96.13
29045;BME280;16133;49.486;12.176;2022-11-09T10:54:31;97298.84;;;12.33;97.22
29045;BME280;16133;49.486;12.176;2022-11-09T10:59:42;97297.81;;;12.62;96.68
29045;BME280;16133;49.486;12.176;2022-11-09T11:02:39;97292.00;;;12.80;96.28
29045;BME280;16133;49.486;12.176;2022-11-09T11:07:31;97295.78;;;12.99;95.95
29045;BME280;16133;49.486;12.176;2022-11-09T11:12:39;97265.66;;;12.98;92.79
29045;BME280;16133;49.486;12.176;2022-11-09T11:17:48;97233.59;;;12.78;94.12
29045;BME280;16133;49.486;12.176;2022-11-09T11:20:47;97278.75;;;12.93;93.73
29045;BME280;16133;49.486;12.176;2022-11-09T11:23:18;97281.53;;;12.78;93.99
29045;BME280;16133;49.486;12.176;2022-11-09T11:30:56;97276.16;;;12.10;97.55
29045;BME280;16133;49.486;12.176;2022-11-09T11:33:21;97280.47;;;11.89;99.78
29045;BME280;16133;49.486;12.176;2022-11-09T11:38:50;97263.19;;;11.43;100.00
29045;BME280;16133;49.486;12.176;2022-11-09T11:51:43;97246.69;;;10.32;100.00
29045;BME280;16133;49.486;12.176;2022-11-09T11:54:33;97244.72;;;10.11;100.00
29045;BME280;16133;49.486;12.176;2022-11-09T12:11:42;97235.09;;;9.95;100.00
29045;BME280;16133;49.486;12.176;2022-11-09T12:16:57;97235.03;;;10.03;100.00
29045;BME280;16133;49.486;12.176;2022-11-09T12:25:23;97227.13;;;10.18;100.00
29045;BME280;16133;49.486;12.176;2022-11-09T12:30:59;97215.50;;;10.48;100.00
29045;BME280;16133;49.486;12.176;2022-11-09T12:36:05;97214.50;;;10.49;100.00
29045;BME280;16133;49.486;12.176;2022-11-09T12:38:45;97190.72;;;10.41;100.00
29045;BME280;16133;49.486;12.176;2022-11-09T12:41:19;97199.50;;;10.57;100.00
29045;BME280;16133;49.486;12.176;2022-11-09T12:46:19;97196.03;;;10.41;100.00
29045;BME280;16133;49.486;12.176;2022-11-09T12:48:47;97198.22;;;10.38;100.00
29045;BME280;16133;49.486;12.176;2022-11-09T12:51:13;97192.66;;;10.33;100.00
29045;BME280;16133;49.486;12.176;2022-11-09T12:53:39;97206.81;;;10.25;100.00
29045;BME280;16133;49.486;12.176;2022-11-09T12:56:19;97201.69;;;10.24;100.00
29045;BME280;16133;49.486;12.176;2022-11-09T12:58:47;97207.34;;;10.21;100.00
29045;BME280;16133;49.486;12.176;2022-11-09T13:04:00;97206.34;;;10.22;100.00
29045;BME280;16133;49.486;12.176;2022-11-09T13:06:28;97203.88;;;10.20;100.00
29045;BME280;16133;49.486;12.176;2022-11-09T13:11:35;97207.19;;;10.22;100.00
29045;BME280;16133;49.486;12.176;2022-11-09T13:16:59;97211.28;;;10.25;100.00
29045;BME280;16133;49.486;12.176;2022-11-09T13:29:57;97224.97;;;10.14;100.00
29045;BME280;16133;49.486;12.176;2022-11-09T13:32:28;97219.66;;;10.14;100.00
29045;BME280;16133;49.486;12.176;2022-11-09T13:35:00;97225.66;;;10.16;100.00
29045;BME280;16133;49.486;12.176;2022-11-09T13:45:45;97227.56;;;10.22;100.00
29045;BME280;16133;49.486;12.176;2022-11-09T13:58:48;97233.91;;;9.98;100.00
29045;BME280;16133;49.486;12.176;2022-11-09T14:01:51;97229.34;;;9.92;100.00
29045;BME280;16133;49.486;12.176;2022-11-09T14:04:37;97229.88;;;9.87;100.00
29045;BME280;16133;49.486;12.176;2022-11-09T14:07:30;97234.50;;;9.85;100.00
29045;BME280;16133;49.486;12.176;2022-11-09T14:13:15;97237.25;;;9.77;100.00
29045;BME280;16133;49.486;12.176;2022-11-09T14:24:21;97257.03;;;9.44;100.00
29045;BME280;16133;49.486;12.176;2022-11-09T14:29:48;97262.59;;;9.26;100.00
29045;BME280;16133;49.486;12.176;2022-11-09T14:34:42;97260.84;;;9.19;100.00
29045;BME280;16133;49.486;12.176;2022-11-09T14:37:10;97264.16;;;9.12;100.00
29045;BME280;16133;49.486;12.176;2022-11-09T14:39:38;97262.69;;;9.10;100.00
29045;BME280;16133;49.486;12.176;2022-11-09T14:42:04;97267.84;;;9.11;100.00
29045;BME280;16133;49.486;12.176;2022-11-09T14:44:34;97258.22;;;9.10;100.00
29045;BME280;16133;49.486;12.176;2022-11-09T14:47:05;97258.06;;;9.12;100.00
29045;BME280;16133;49.486;12.176;2022-11-09T14:49:35;97251.75;;;9.13;100.00
29045;BME280;16133;49.486;12.176;2022-11-09T14:52:02;97255.22;;;9.13;100.00
29045;BME280;16133;49.486;12.176;2022-11-09T14:54:28;97258.06;;;9.12;100.00
29045;BME280;16133;49.486;12.176;2022-11-09T14:56:54;97257.56;;;9.08;100.00
29045;BME280;16133;49.486;12.176;2022-11-09T14:59:33;97257.09;;;9.05;100.00
29045;BME280;16133;49.486;12.176;2022-11-09T15:02:08;97269.53;;;9.04;100.00
29045;BME280;16133;49.486;12.176;2022-11-09T15:05:00;97268.84;;;9.02;100.00
29045;BME280;16133;49.486;12.176;2022-11-09T15:07:31;97266.09;;;8.96;100.00
29045;BME280;16133;49.486;12.176;2022-11-09T15:10:06;97257.69;;;8.92;100.00
29045;BME280;16133;49.486;12.176;2022-11-09T15:12:33;97253.75;;;8.80;100.00
29045;BME280;16133;49.486;12.176;2022-11-09T15:15:04;97262.06;;;8.69;100.00
29045;BME280;16133;49.486;12.176;2022-11-09T15:17:36;97275.97;;;8.55;100.00